Time;durP1;ratioP1;P1;durP2;ratioP2;P2;SDS_P1;SDS_P2;PMS_P1;PMS_P2;Temp;Humidity;BMP_temperature;BMP_pressure;BME280_temperature;BME280_humidity;BME280_pressure;Samples;Min_cycle;Max_cycle;Signal;HPM_P1;HPM_P2
2021/12/07 00:00:54;398702.00;1.33;687.57;88864.00;0.30;154.35;;;;;10.50;1.00;;;;;;2283507;61;990;-87
2021/12/07 00:10:52;361983.00;1.21;624.46;98613.00;0.33;171.18;;;;;10.70;1.00;;;;;;2507978;40;3487;31
2021/12/07 00:13:19;353952.00;1.18;610.65;91813.00;0.31;159.44;;;;;10.40;1.00;;;;;;2503438;40;3617;31
2021/12/07 00:23:11;321509.00;1.07;554.89;96867.00;0.32;168.16;;;;;10.40;1.00;;;;;;2504353;40;3482;31
2021/12/07 00:30:35;400909.00;1.34;691.37;84846.00;0.28;147.41;;;;;10.40;1.00;;;;;;2503277;55;3577;31
2021/12/07 00:38:06;24715.00;0.08;43.43;0.00;0.00;0.62;;;;;9.50;1.00;;;;;;2502434;55;3585;31
2021/12/07 00:45:32;118367.00;0.39;205.27;0.00;0.00;0.62;;;;;8.30;1.00;;;;;;2283497;61;1322;-88
2021/12/07 01:30:15;450591.00;1.50;776.80;0.00;0.00;0.62;;;;;6.60;1.00;;;;;;2507136;40;3480;31
2021/12/07 01:37:54;701980.00;2.34;1210.67;104335.00;0.35;181.05;;;;;6.80;1.00;;;;;;2508073;55;3584;31
2021/12/07 02:32:27;41595.00;0.14;72.65;0.00;0.00;0.62;;;;;5.80;1.00;;;;;;2508259;40;3522;31
2021/12/07 02:37:21;28867.00;0.10;50.62;0.00;0.00;0.62;;;;;5.90;1.00;;;;;;2508490;40;3522;31
2021/12/07 02:42:16;64901.00;0.22;112.95;0.00;0.00;0.62;;;;;5.70;1.00;;;;;;2502905;40;3485;31
2021/12/07 02:49:40;104184.00;0.35;180.79;0.00;0.00;0.62;;;;;5.80;1.00;;;;;;2283388;61;967;-87
2021/12/07 02:52:07;62091.00;0.21;108.09;0.00;0.00;0.62;;;;;6.10;1.00;;;;;;2505093;55;3811;31
2021/12/07 03:04:37;80953.00;0.27;140.68;0.00;0.00;0.62;;;;;6.30;1.00;;;;;;2502826;40;3484;31
2021/12/07 03:32:24;472073.00;1.57;813.76;0.00;0.00;0.62;;;;;5.50;1.00;;;;;;2284662;61;1360;-87
2021/12/07 03:42:22;40844.00;0.14;71.35;0.00;0.00;0.62;;;;;5.50;1.00;;;;;;2502720;55;3593;31
2021/12/07 03:49:48;81026.00;0.27;140.81;0.00;0.00;0.62;;;;;5.70;1.00;;;;;;2279131;61;1290;-89
2021/12/07 03:54:43;100643.00;0.34;174.68;0.00;0.00;0.62;;;;;5.40;1.00;;;;;;2283246;61;1881;-85
2021/12/07 03:57:10;39402.00;0.13;68.85;0.00;0.00;0.62;;;;;5.40;1.00;;;;;;2281575;61;391;-87
2021/12/07 03:59:37;91881.00;0.31;159.56;0.00;0.00;0.62;;;;;5.30;1.00;;;;;;2281553;61;386;-87
2021/12/07 04:04:32;163371.00;0.54;282.85;0.00;0.00;0.62;;;;;5.70;1.00;;;;;;2279391;61;1298;-87
2021/12/07 04:09:29;128298.00;0.43;222.39;0.00;0.00;0.62;;;;;5.80;1.00;;;;;;2283115;61;1330;-87
2021/12/07 04:24:15;71921.00;0.24;125.08;0.00;0.00;0.62;;;;;5.90;1.00;;;;;;2283163;61;902;-87
2021/12/07 04:26:43;157503.00;0.53;272.74;0.00;0.00;0.62;;;;;5.80;1.00;;;;;;2511206;40;3680;31
2021/12/07 04:29:11;64356.00;0.21;112.01;0.00;0.00;0.62;;;;;5.70;1.00;;;;;;2510513;55;4005;31
2021/12/07 05:11:32;116403.00;0.39;201.88;0.00;0.00;0.62;;;;;6.00;1.00;;;;;;2514759;39;3601;31
2021/12/07 05:46:03;221820.00;0.74;383.48;0.00;0.00;0.62;;;;;6.80;1.00;;;;;;2283641;61;900;-87
2021/12/07 06:08:28;205484.00;0.68;355.36;0.00;0.00;0.62;;;;;8.50;1.00;;;;;;2287519;61;1298;-86
2021/12/07 06:10:55;436035.00;1.45;751.76;87301.00;0.29;151.65;;;;;8.40;1.00;;;;;;2285835;61;498;-87
2021/12/07 07:24:58;298116.00;0.99;514.68;34643.00;0.12;60.62;;;;;5.70;1.00;;;;;;2279684;61;884;-88
2021/12/07 08:36:31;59031.00;0.20;102.80;0.00;0.00;0.62;;;;;7.50;1.00;;;;;;2279280;61;915;-87
2021/12/07 08:48:52;286273.00;0.95;494.32;0.00;0.00;0.62;;;;;7.40;1.00;;;;;;2283518;61;1306;-88
2021/12/07 08:51:20;191082.00;0.64;330.57;14003.00;0.05;24.88;;;;;7.40;1.00;;;;;;2281420;61;382;-85
2021/12/07 09:21:10;118925.00;0.40;206.23;0.00;0.00;0.62;;;;;6.90;1.00;;;;;;2279255;61;888;-86
2021/12/07 09:33:30;841921.00;2.81;1454.33;43324.00;0.14;75.64;;;;;7.40;1.00;;;;;;2275915;61;1226;-83
2021/12/07 09:35:58;534983.00;1.78;922.08;0.00;0.00;0.62;;;;;7.30;1.00;;;;;;2274038;61;2040;-84
2021/12/07 09:38:27;567578.00;1.89;978.27;0.00;0.00;0.62;;;;;7.70;1.00;;;;;;2274626;61;1132;-83
2021/12/07 09:40:54;790402.00;2.63;1364.39;0.00;0.00;0.62;;;;;7.60;1.00;;;;;;2274835;61;1252;-84
2021/12/07 09:43:22;647767.00;2.16;1116.77;0.00;0.00;0.62;;;;;7.40;1.00;;;;;;2275380;61;1138;-84
2021/12/07 09:45:49;728407.00;2.43;1256.54;0.00;0.00;0.62;;;;;6.90;1.00;;;;;;2276807;61;1681;-87
2021/12/07 09:48:16;947484.00;3.16;1639.67;44318.00;0.15;77.36;;;;;7.10;1.00;;;;;;2279930;61;1087;-87
2021/12/07 09:50:46;752606.00;2.51;1298.59;0.00;0.00;0.62;;;;;7.00;1.00;;;;;;2279819;61;1335;-87
2021/12/07 09:53:15;827277.00;2.76;1428.74;2512.00;0.01;4.97;;;;;6.90;1.00;;;;;;2272664;61;1089;-88
2021/12/07 09:55:46;533330.00;1.78;919.23;0.00;0.00;0.62;;;;;7.20;1.00;;;;;;2279964;61;1923;-87
2021/12/07 09:58:13;824373.00;2.75;1423.66;23738.00;0.08;41.74;;;;;7.00;1.00;;;;;;2280703;60;1177;-87
2021/12/07 10:00:41;945488.00;3.15;1636.16;7813.00;0.03;14.16;;;;;6.80;1.00;;;;;;2280484;61;1432;-88
2021/12/07 10:03:08;620126.00;2.07;1068.98;0.00;0.00;0.62;;;;;6.50;1.00;;;;;;2280584;60;1174;-88
2021/12/07 10:05:36;853652.00;2.85;1474.86;0.00;0.00;0.62;;;;;6.60;1.00;;;;;;2273466;61;1074;-87
2021/12/07 10:08:05;674817.00;2.25;1163.60;0.00;0.00;0.62;;;;;7.00;1.00;;;;;;2276541;61;1273;-87
2021/12/07 10:10:35;743322.00;2.48;1282.45;0.00;0.00;0.62;;;;;6.90;1.00;;;;;;2276739;60;1406;-87
2021/12/07 10:13:06;762123.00;2.54;1315.14;0.00;0.00;0.62;;;;;7.00;1.00;;;;;;2280254;61;1132;-87
2021/12/07 10:15:33;713648.00;2.38;1230.91;0.00;0.00;0.62;;;;;7.00;1.00;;;;;;2280281;61;1997;-87
2021/12/07 10:18:03;552470.00;1.84;952.22;0.00;0.00;0.62;;;;;6.30;1.00;;;;;;2273455;61;1049;-87
2021/12/07 10:20:38;611102.00;2.04;1053.39;0.00;0.00;0.62;;;;;6.40;1.00;;;;;;2276979;60;1320;-87
2021/12/07 10:23:23;748677.00;2.50;1291.76;7292.00;0.02;13.26;;;;;6.90;1.00;;;;;;2280870;60;1035;-86
2021/12/07 10:25:55;605481.00;2.02;1043.68;0.00;0.00;0.62;;;;;7.30;1.00;;;;;;2277051;60;1052;-86
2021/12/07 10:28:36;550511.00;1.84;948.84;0.00;0.00;0.62;;;;;6.80;1.00;;;;;;2273619;61;1050;-86
2021/12/07 10:31:16;613780.00;2.05;1058.02;0.00;0.00;0.62;;;;;6.90;1.00;;;;;;2270237;60;1373;-87
2021/12/07 10:33:48;638747.00;2.13;1101.17;0.00;0.00;0.62;;;;;6.80;1.00;;;;;;2280417;60;1344;-87
2021/12/07 10:36:19;690745.00;2.30;1191.19;26427.00;0.09;46.40;;;;;6.80;1.00;;;;;;2280230;61;2013;-87
2021/12/07 10:38:50;977365.00;3.26;1692.42;5852.00;0.02;10.76;;;;;6.60;1.00;;;;;;2276485;61;1079;-87
2021/12/07 10:41:18;827729.00;2.76;1429.53;23513.00;0.08;41.35;;;;;6.90;1.00;;;;;;2280237;61;1476;-87
2021/12/07 10:43:54;791412.00;2.64;1366.15;0.00;0.00;0.62;;;;;7.10;1.00;;;;;;2276450;61;1100;-87
2021/12/07 10:46:41;714173.00;2.38;1231.82;0.00;0.00;0.62;;;;;6.90;1.00;;;;;;2276223;61;1266;-88
2021/12/07 10:49:13;1083455.00;3.61;1880.86;100360.00;0.33;174.19;;;;;6.90;1.00;;;;;;2269636;61;1161;-87
2021/12/07 10:51:42;878878.00;2.93;1519.05;170485.00;0.57;295.10;;;;;7.20;1.00;;;;;;2280308;61;1421;-87
2021/12/07 10:54:10;866051.00;2.89;1496.57;132726.00;0.44;230.03;;;;;7.10;1.00;;;;;;2280729;61;1923;-88
2021/12/07 10:56:39;900366.00;3.00;1556.76;103423.00;0.34;179.48;;;;;7.10;1.00;;;;;;2273572;61;1176;-88
2021/12/07 10:59:10;855223.00;2.85;1477.61;0.00;0.00;0.62;;;;;7.80;1.00;;;;;;2273386;61;1120;-88
2021/12/07 11:01:40;667615.00;2.23;1151.12;0.00;0.00;0.62;;;;;7.90;1.00;;;;;;2269295;61;1346;-88
2021/12/07 11:04:26;589663.00;1.97;1016.37;0.00;0.00;0.62;;;;;8.10;1.00;;;;;;2279281;61;1168;-88
2021/12/07 11:07:09;136635472.00;455.45;103373400.00;98782.00;0.33;171.47;;;;;7.80;1.00;;;;;;2279869;61;1155;-88
2021/12/07 11:09:56;1074631.00;3.58;1865.11;101671.00;0.34;176.46;;;;;8.20;1.00;;;;;;2273433;60;1061;-87
2021/12/07 11:12:25;1002444.00;3.34;1736.80;0.00;0.00;0.62;;;;;8.80;1.00;;;;;;2273265;61;1320;-88
2021/12/07 11:14:58;1278303.00;4.26;2232.45;0.00;0.00;0.62;;;;;9.50;1.00;;;;;;2275170;61;1998;-88
2021/12/07 11:17:28;1075468.00;3.58;1866.61;15301.00;0.05;27.13;;;;;9.40;1.00;;;;;;2272083;61;1278;-88
2021/12/07 11:19:56;950533.00;3.17;1645.05;35523.00;0.12;62.14;;;;;9.20;1.00;;;;;;2269073;61;1256;-88
2021/12/07 11:22:28;1221530.00;4.07;2129.20;52914.00;0.18;92.23;;;;;8.90;1.00;;;;;;2275663;61;1441;-88
2021/12/07 11:24:56;902622.00;3.01;1560.73;0.00;0.00;0.62;;;;;8.90;1.00;;;;;;2272369;61;1155;-88
2021/12/07 11:30:13;503630.00;1.68;868.07;0.00;0.00;0.62;;;;;9.20;1.00;;;;;;2280117;61;651;-88
2021/12/07 11:32:44;668580.00;2.23;1152.79;0.00;0.00;0.62;;;;;9.20;1.00;;;;;;2275589;61;1167;-88
2021/12/07 11:35:16;522480.00;1.74;900.54;0.00;0.00;0.62;;;;;9.40;1.00;;;;;;2270978;61;1927;-88
2021/12/07 11:37:45;879615.00;2.93;1520.34;12728.00;0.04;22.68;;;;;9.20;1.00;;;;;;2267110;61;1169;-88
2021/12/07 11:40:13;870145.00;2.90;1503.74;18669.00;0.06;32.97;;;;;9.10;1.00;;;;;;2269151;61;1092;-87
2021/12/07 11:42:43;745481.00;2.48;1286.20;0.00;0.00;0.62;;;;;9.00;1.00;;;;;;2263042;61;1164;-88
2021/12/07 11:45:16;660522.00;2.20;1138.84;87198.00;0.29;151.47;;;;;9.30;1.00;;;;;;2270110;61;1100;-88
2021/12/07 11:47:46;859910.00;2.87;1485.81;93116.00;0.31;161.69;;;;;9.50;1.00;;;;;;2270691;61;1212;-88
2021/12/07 11:50:28;1163008.00;3.88;2023.48;107022.00;0.36;185.69;;;;;8.90;1.00;;;;;;2264745;61;1184;-88
2021/12/07 11:52:58;823546.00;2.75;1422.22;0.00;0.00;0.62;;;;;9.00;1.00;;;;;;2264005;61;1195;-88
2021/12/07 11:55:33;590500.00;1.97;1017.82;0.00;0.00;0.62;;;;;9.50;1.00;;;;;;2279340;61;1923;-88
2021/12/07 11:58:01;856880.00;2.86;1480.51;0.00;0.00;0.62;;;;;9.30;1.00;;;;;;2272192;61;1116;-88
2021/12/07 12:00:35;613042.00;2.04;1056.74;0.00;0.00;0.62;;;;;9.00;1.00;;;;;;2279577;61;1437;-88
2021/12/07 12:03:03;662694.00;2.21;1142.60;0.00;0.00;0.62;;;;;9.50;1.00;;;;;;2279612;61;1233;-88
2021/12/07 12:05:30;659922.00;2.20;1137.81;0.00;0.00;0.62;;;;;9.50;1.00;;;;;;2279659;61;1061;-88
2021/12/07 12:07:58;768759.00;2.56;1326.69;0.00;0.00;0.62;;;;;9.70;1.00;;;;;;2279282;61;1111;-88
2021/12/07 12:10:26;1012603.00;3.38;1754.81;0.00;0.00;0.62;;;;;9.20;1.00;;;;;;2275285;61;1367;-88
2021/12/07 12:13:12;836307.00;2.79;1444.52;2136.00;0.01;4.32;;;;;9.20;1.00;;;;;;2279379;60;1092;-88
2021/12/07 12:16:08;904750.00;3.02;1564.46;28899.00;0.10;50.68;;;;;9.90;1.00;;;;;;2271951;61;1939;-88
2021/12/07 12:18:57;493649.00;1.65;850.89;0.00;0.00;0.62;;;;;10.40;1.00;;;;;;2272270;61;1155;-88
2021/12/07 12:21:32;492413.00;1.64;848.76;0.00;0.00;0.62;;;;;10.70;1.00;;;;;;2274815;61;1420;-88
2021/12/07 12:24:14;577041.00;1.92;994.59;0.00;0.00;0.62;;;;;10.50;1.00;;;;;;2274716;61;1077;-88
2021/12/07 12:26:44;660821.00;2.20;1139.36;19694.00;0.07;34.74;;;;;10.60;1.00;;;;;;2268186;61;1147;-88
2021/12/07 12:29:20;604604.00;2.02;1042.17;0.00;0.00;0.62;;;;;10.40;1.00;;;;;;2268306;61;1140;-88
2021/12/07 12:31:52;459039.00;1.53;791.33;0.00;0.00;0.62;;;;;10.00;1.00;;;;;;2275142;61;1379;-88
2021/12/07 12:34:22;487484.00;1.62;840.28;0.00;0.00;0.62;;;;;9.90;1.00;;;;;;2268531;61;1187;-88
2021/12/07 12:36:59;741741.00;2.47;1279.70;0.00;0.00;0.62;;;;;9.30;1.00;;;;;;2275169;61;1940;-88
2021/12/07 12:39:54;557896.00;1.86;961.57;0.00;0.00;0.62;;;;;9.10;1.00;;;;;;2277102;61;1029;-88
2021/12/07 12:42:40;655488.00;2.18;1130.13;0.00;0.00;0.62;;;;;9.30;1.00;;;;;;2272647;61;1359;-88
2021/12/07 12:45:19;678294.00;2.26;1169.62;5183.00;0.02;9.60;;;;;9.60;1.00;;;;;;2275865;61;1049;-88
2021/12/07 12:47:55;691277.00;2.30;1192.12;46634.00;0.16;81.36;;;;;10.10;1.00;;;;;;2279637;61;1149;-88
2021/12/07 12:50:25;883618.00;2.95;1527.37;38296.00;0.13;66.94;;;;;9.40;1.00;;;;;;2279663;60;1388;-88
2021/12/07 12:52:54;581344.00;1.94;1002.02;0.00;0.00;0.62;;;;;9.20;1.00;;;;;;2275224;61;1071;-88
2021/12/07 12:55:35;645437.00;2.15;1112.74;0.00;0.00;0.62;;;;;9.60;1.00;;;;;;2268607;61;2005;-88
2021/12/07 12:58:06;903851.00;3.01;1562.88;78604.00;0.26;136.63;;;;;10.10;1.00;;;;;;2268654;61;1005;-88
2021/12/07 13:00:59;1060715.00;3.54;1840.31;28264.00;0.09;49.58;;;;;10.10;1.00;;;;;;2275037;61;1411;-88
2021/12/07 13:03:37;807459.00;2.69;1394.14;0.00;0.00;0.62;;;;;9.40;1.00;;;;;;2249053;61;1248;-88
2021/12/07 13:06:04;812257.00;2.71;1402.51;0.00;0.00;0.62;;;;;9.00;1.00;;;;;;2252259;61;1093;-88
2021/12/07 13:08:35;969915.00;3.23;1679.26;0.00;0.00;0.62;;;;;9.20;1.00;;;;;;2249483;61;1070;-88
2021/12/07 13:11:05;1269911.00;4.23;2217.14;42434.00;0.14;74.10;;;;;9.60;1.00;;;;;;2254292;61;1335;-88
2021/12/07 13:13:36;861016.00;2.87;1487.75;12187.00;0.04;21.74;;;;;10.40;1.00;;;;;;2256112;61;1077;-88
2021/12/07 13:16:14;1165478.00;3.88;2027.93;97518.00;0.33;169.29;;;;;10.30;1.00;;;;;;2256327;61;1918;-87
2021/12/07 13:18:44;1152122.00;3.84;2003.89;12791.00;0.04;22.78;;;;;10.70;1.00;;;;;;2256007;61;1690;-87
2021/12/07 13:21:25;791128.00;2.64;1365.66;12636.00;0.04;22.52;;;;;10.90;1.00;;;;;;2255913;61;1355;-86
2021/12/07 13:23:58;908942.00;3.03;1571.83;0.00;0.00;0.62;;;;;10.60;1.00;;;;;;2255589;61;1088;-86
2021/12/07 13:26:25;1123890.00;3.75;1953.20;0.00;0.00;0.62;;;;;9.40;1.00;;;;;;2256089;61;1168;-86
2021/12/07 13:29:07;1263018.00;4.21;2204.58;29205.00;0.10;51.21;;;;;9.20;1.00;;;;;;2259420;61;1024;-87
2021/12/07 13:31:40;633498.00;2.11;1092.10;0.00;0.00;0.62;;;;;9.80;1.00;;;;;;2257325;61;1345;-88
2021/12/07 13:34:09;592722.00;1.98;1021.65;0.00;0.00;0.62;;;;;9.80;1.00;;;;;;2260789;61;1096;-88
2021/12/07 13:36:41;592133.00;1.97;1020.64;0.00;0.00;0.62;;;;;9.90;1.00;;;;;;2264099;61;1919;-88
2021/12/07 13:39:31;549682.00;1.83;947.41;0.00;0.00;0.62;;;;;10.00;1.00;;;;;;2264741;61;1171;-87
2021/12/07 13:42:00;706560.00;2.36;1218.62;0.00;0.00;0.62;;;;;9.80;1.00;;;;;;2276917;61;1478;-89
2021/12/07 13:44:30;956138.00;3.19;1654.94;0.00;0.00;0.62;;;;;10.00;1.00;;;;;;2280682;61;1028;-87
2021/12/07 13:47:00;840655.00;2.80;1452.12;23758.00;0.08;41.78;;;;;10.40;1.00;;;;;;2276854;60;1192;-87
2021/12/07 13:49:30;1013500.00;3.38;1756.40;0.00;0.00;0.62;;;;;10.20;1.00;;;;;;2276235;61;1048;-88
2021/12/07 13:51:57;636422.00;2.12;1097.15;0.00;0.00;0.62;;;;;10.00;1.00;;;;;;2267965;61;1427;-88
2021/12/07 13:54:24;711950.00;2.37;1227.97;0.00;0.00;0.62;;;;;10.00;1.00;;;;;;2268126;61;962;-87
2021/12/07 13:56:54;911618.00;3.04;1576.53;0.00;0.00;0.62;;;;;9.90;1.00;;;;;;2267951;61;1919;-88
2021/12/07 13:59:23;917576.00;3.06;1587.01;0.00;0.00;0.62;;;;;10.20;1.00;;;;;;2268137;61;1108;-88
2021/12/07 14:01:52;673972.00;2.25;1162.13;0.00;0.00;0.62;;;;;10.50;1.00;;;;;;2264528;61;1254;-88
2021/12/07 14:04:24;878973.00;2.93;1519.22;0.00;0.00;0.62;;;;;10.70;1.00;;;;;;2261176;61;1032;-88
2021/12/07 14:06:53;975126.00;3.25;1688.47;27160.00;0.09;47.67;;;;;10.60;1.00;;;;;;2268830;61;1149;-88
2021/12/07 14:09:21;682750.00;2.28;1177.34;0.00;0.00;0.62;;;;;10.80;1.00;;;;;;2264765;61;1152;-87
2021/12/07 14:11:52;701213.00;2.34;1209.34;0.00;0.00;0.62;;;;;11.10;1.00;;;;;;2261342;61;1286;-88
2021/12/07 14:14:20;851106.00;2.84;1470.40;0.00;0.00;0.62;;;;;11.50;1.00;;;;;;2259853;61;1074;-88
2021/12/07 14:16:50;629725.00;2.10;1085.57;0.00;0.00;0.62;;;;;11.70;1.00;;;;;;2247990;61;1936;-88
2021/12/07 14:19:18;675044.00;2.25;1163.99;0.00;0.00;0.62;;;;;11.90;1.00;;;;;;2244801;61;959;-88
2021/12/07 14:21:46;762255.00;2.54;1315.37;0.00;0.00;0.62;;;;;12.10;1.00;;;;;;2247898;61;1446;-88
2021/12/07 14:24:19;663560.00;2.21;1144.10;0.00;0.00;0.62;;;;;12.30;1.00;;;;;;2248077;61;940;-88
2021/12/07 14:26:47;790113.00;2.63;1363.89;0.00;0.00;0.62;;;;;12.50;1.00;;;;;;2250536;61;1074;-88
2021/12/07 14:29:16;520342.00;1.73;896.85;0.00;0.00;0.62;;;;;12.30;1.00;;;;;;2253151;61;1260;-88
2021/12/07 14:31:46;795976.00;2.65;1374.11;0.00;0.00;0.62;;;;;12.20;1.00;;;;;;2261594;61;1442;-88
2021/12/07 14:34:16;653441.00;2.18;1126.59;0.00;0.00;0.62;;;;;12.30;1.00;;;;;;2267373;61;962;-88
2021/12/07 14:36:59;718681.00;2.40;1239.65;0.00;0.00;0.62;;;;;12.50;1.00;;;;;;2280553;60;1982;-88
2021/12/07 14:39:38;1450387.00;4.83;2550.11;181310.00;0.60;313.75;;;;;12.50;1.00;;;;;;2276150;61;960;-87
2021/12/07 14:42:07;592341.00;1.97;1021.00;98278.00;0.33;170.60;;;;;12.50;1.00;;;;;;2267934;61;1393;-88
2021/12/07 14:44:37;538467.00;1.79;928.08;0.00;0.00;0.62;;;;;12.80;1.00;;;;;;2261251;61;1137;-88
2021/12/07 14:47:07;503814.00;1.68;868.39;0.00;0.00;0.62;;;;;13.00;1.00;;;;;;2257962;61;994;-88
2021/12/07 14:49:36;433297.00;1.44;747.06;0.00;0.00;0.62;;;;;12.70;1.00;;;;;;2255999;61;944;-89
2021/12/07 14:52:10;487047.00;1.62;839.53;0.00;0.00;0.62;;;;;13.00;1.00;;;;;;2255827;61;1291;-87
2021/12/07 14:54:39;529958.00;1.77;913.42;45990.00;0.15;80.25;;;;;13.00;1.00;;;;;;2255833;61;1173;-88
2021/12/07 14:57:07;440158.00;1.47;758.85;0.00;0.00;0.62;;;;;12.90;1.00;;;;;;2252341;61;2007;-88
2021/12/07 14:59:38;412652.00;1.38;711.56;0.00;0.00;0.62;;;;;12.90;1.00;;;;;;2255333;61;1037;-88
2021/12/07 15:02:08;584910.00;1.95;1008.17;6742.00;0.02;12.30;;;;;12.70;1.00;;;;;;2267919;61;1300;-87
2021/12/07 15:04:35;542988.00;1.81;935.87;0.00;0.00;0.62;;;;;12.40;1.00;;;;;;2261208;61;1064;-88
2021/12/07 15:07:04;499559.00;1.67;861.06;0.00;0.00;0.62;;;;;12.30;1.00;;;;;;2264052;60;1031;-88
2021/12/07 15:09:35;1156305.00;3.85;2011.42;48529.00;0.16;84.64;;;;;12.20;1.00;;;;;;2280058;60;988;-88
2021/12/07 15:12:06;368418.00;1.23;635.52;0.00;0.00;0.62;;;;;12.30;1.00;;;;;;2273345;60;1440;-88
2021/12/07 15:14:34;693755.00;2.31;1196.41;0.00;0.00;0.62;;;;;12.30;1.00;;;;;;2276846;61;1080;-88
2021/12/07 15:17:04;514147.00;1.71;886.18;0.00;0.00;0.62;;;;;12.50;1.00;;;;;;2280465;60;1919;-88
2021/12/07 15:19:32;519842.00;1.73;895.99;0.00;0.00;0.62;;;;;12.60;1.00;;;;;;2280463;60;1000;-88
2021/12/07 15:22:00;584277.00;1.95;1007.08;0.00;0.00;0.62;;;;;12.50;1.00;;;;;;2273278;60;1462;-88
2021/12/07 15:24:29;437612.00;1.46;754.48;0.00;0.00;0.62;;;;;12.50;1.00;;;;;;2276711;61;976;-88
2021/12/07 15:26:56;414320.00;1.38;714.42;0.00;0.00;0.62;;;;;11.90;1.00;;;;;;2270098;61;961;-88
2021/12/07 15:29:27;441864.00;1.47;761.79;0.00;0.00;0.62;;;;;11.80;1.00;;;;;;2275713;61;932;-88
2021/12/07 15:31:57;760695.00;2.54;1312.66;24670.00;0.08;43.36;;;;;11.80;1.00;;;;;;2272351;61;1379;-88
2021/12/07 15:34:26;499497.00;1.66;860.96;0.00;0.00;0.62;;;;;11.80;1.00;;;;;;2267637;61;1105;-88
2021/12/07 15:36:58;481660.00;1.61;830.25;0.00;0.00;0.62;;;;;11.90;1.00;;;;;;2267661;61;1993;-88
2021/12/07 15:39:29;347708.00;1.16;599.92;0.00;0.00;0.62;;;;;12.10;1.00;;;;;;2261185;61;1039;-87
2021/12/07 15:41:58;557911.00;1.86;961.60;0.00;0.00;0.62;;;;;11.70;1.00;;;;;;2267670;61;1297;-89
2021/12/07 15:44:32;611968.00;2.04;1054.89;0.00;0.00;0.62;;;;;11.20;1.00;;;;;;2267657;61;1077;-88
2021/12/07 15:47:01;482916.00;1.61;832.42;0.00;0.00;0.62;;;;;11.00;1.00;;;;;;2262239;61;960;-88
2021/12/07 15:49:31;502665.00;1.68;866.41;0.00;0.00;0.62;;;;;10.40;1.00;;;;;;2271752;61;938;-88
2021/12/07 15:52:01;549325.00;1.83;946.80;0.00;0.00;0.62;;;;;10.60;1.00;;;;;;2270212;61;1407;-88
2021/12/07 15:54:28;524391.00;1.75;903.83;0.00;0.00;0.62;;;;;10.70;1.00;;;;;;2280256;61;1160;-88
2021/12/07 15:57:01;640674.00;2.14;1104.50;0.00;0.00;0.62;;;;;11.00;1.00;;;;;;2269801;61;1919;-88
2021/12/07 15:59:30;570964.00;1.90;984.11;0.00;0.00;0.62;;;;;10.60;1.00;;;;;;2273214;61;1018;-88
2021/12/07 16:01:57;397116.00;1.32;684.85;0.00;0.00;0.62;;;;;10.20;1.00;;;;;;2280250;61;1390;-88
2021/12/07 16:04:28;704775.00;2.35;1215.52;14931.00;0.05;26.49;;;;;9.80;1.00;;;;;;2276135;61;1092;-88
2021/12/07 16:06:55;611218.00;2.04;1053.59;0.00;0.00;0.62;;;;;9.70;1.00;;;;;;2276369;61;1148;-87
2021/12/07 16:09:22;620100.00;2.07;1068.94;0.00;0.00;0.62;;;;;9.70;1.00;;;;;;2273218;61;951;-88
2021/12/07 16:11:51;858353.00;2.86;1483.09;0.00;0.00;0.62;;;;;9.90;1.00;;;;;;2271448;61;1398;-88
2021/12/07 16:14:27;625003.00;2.08;1077.41;0.00;0.00;0.62;;;;;9.70;1.00;;;;;;2271497;61;1546;-88
2021/12/07 16:16:56;662433.00;2.21;1142.15;0.00;0.00;0.62;;;;;9.60;1.00;;;;;;2271042;61;1917;-87
2021/12/07 16:19:24;731331.00;2.44;1261.61;0.00;0.00;0.62;;;;;9.80;1.00;;;;;;2261712;61;1032;-88
2021/12/07 16:21:52;887039.00;2.96;1533.37;0.00;0.00;0.62;;;;;9.70;1.00;;;;;;2268082;61;1343;-88
2021/12/07 16:24:21;733504.00;2.45;1265.39;9116.00;0.03;16.42;;;;;9.70;1.00;;;;;;2264871;61;1109;-88
2021/12/07 16:26:50;718118.00;2.39;1238.67;17540.00;0.06;31.01;;;;;9.80;1.00;;;;;;2261472;61;998;-87
2021/12/07 16:29:19;735888.00;2.45;1269.53;0.00;0.00;0.62;;;;;9.70;1.00;;;;;;2267764;61;1091;-88
2021/12/07 16:31:47;663166.00;2.21;1143.42;0.00;0.00;0.62;;;;;9.60;1.00;;;;;;2269981;61;1422;-86
2021/12/07 16:34:18;605454.00;2.02;1043.64;0.00;0.00;0.62;;;;;9.60;1.00;;;;;;2273222;61;1155;-87
2021/12/07 16:36:46;862556.00;2.88;1490.45;35142.00;0.12;61.48;;;;;9.50;1.00;;;;;;2280337;60;1990;-88
2021/12/07 16:39:13;639000.00;2.13;1101.61;0.00;0.00;0.62;;;;;9.20;1.00;;;;;;2276527;61;1040;-88
2021/12/07 16:41:40;582102.00;1.94;1003.33;0.00;0.00;0.62;;;;;9.00;1.00;;;;;;2273254;61;1464;-87
2021/12/07 16:44:08;855581.00;2.85;1478.24;0.00;0.00;0.62;;;;;8.70;1.00;;;;;;2276551;61;951;-87
2021/12/07 16:46:35;829786.00;2.77;1433.12;0.00;0.00;0.62;;;;;8.60;1.00;;;;;;2276569;60;1017;-86
2021/12/07 16:49:03;694271.00;2.31;1197.31;0.00;0.00;0.62;;;;;8.90;1.00;;;;;;2276505;60;1147;-87
2021/12/07 16:51:33;631715.00;2.11;1089.01;0.00;0.00;0.62;;;;;8.80;1.00;;;;;;2280197;60;1320;-86
2021/12/07 16:54:00;120081568.00;400.27;70142976.00;23161.00;0.08;40.74;;;;;8.70;1.00;;;;;;2276344;60;1043;-88
2021/12/07 16:56:28;819259.00;2.73;1414.73;0.00;0.00;0.62;;;;;8.50;1.00;;;;;;2273007;61;2017;-87
2021/12/07 16:58:55;714600.00;2.38;1232.57;0.00;0.00;0.62;;;;;8.50;1.00;;;;;;2276249;61;1159;-87
2021/12/07 17:01:22;636905.00;2.12;1097.99;0.00;0.00;0.62;;;;;8.50;1.00;;;;;;2276509;61;1455;-88
2021/12/07 17:03:52;707002.00;2.36;1219.38;18741.00;0.06;33.09;;;;;8.80;1.00;;;;;;2276574;60;1088;-87
2021/12/07 17:06:20;623466.00;2.08;1074.76;0.00;0.00;0.62;;;;;8.80;1.00;;;;;;2280245;61;1064;-87
2021/12/07 17:08:48;536181.00;1.79;924.14;0.00;0.00;0.62;;;;;8.90;1.00;;;;;;2267608;61;1043;-88
2021/12/07 17:11:16;1100218.00;3.67;1910.81;35870.00;0.12;62.74;;;;;8.80;1.00;;;;;;2264176;61;1419;-88
2021/12/07 17:13:44;755818.00;2.52;1304.18;0.00;0.00;0.62;;;;;8.40;1.00;;;;;;2260726;61;1057;-88
2021/12/07 17:16:11;641491.00;2.14;1105.92;0.00;0.00;0.62;;;;;8.80;1.00;;;;;;2267590;61;2006;-88
2021/12/07 17:18:38;764420.00;2.55;1319.14;0.00;0.00;0.62;;;;;9.00;1.00;;;;;;2261003;61;1118;-86
2021/12/07 17:21:06;591994.00;1.97;1020.40;0.00;0.00;0.62;;;;;9.10;1.00;;;;;;2267639;61;1416;-87
2021/12/07 17:23:34;510437.00;1.70;879.79;0.00;0.00;0.62;;;;;9.10;1.00;;;;;;2260976;61;985;-87
2021/12/07 17:26:03;701064.00;2.34;1209.08;0.00;0.00;0.62;;;;;9.00;1.00;;;;;;2269343;60;1069;-87
2021/12/07 17:28:31;542626.00;1.81;935.25;0.00;0.00;0.62;;;;;9.40;1.00;;;;;;2275527;61;996;-87
2021/12/07 17:30:59;449589.00;1.50;775.08;0.00;0.00;0.62;;;;;9.50;1.00;;;;;;2268386;61;1329;-87
2021/12/07 17:33:27;582136.00;1.94;1003.38;0.00;0.00;0.62;;;;;9.30;1.00;;;;;;2265202;61;1091;-87
2021/12/07 17:35:54;627669.00;2.09;1082.02;0.00;0.00;0.62;;;;;9.20;1.00;;;;;;2268677;61;974;-87
2021/12/07 17:38:22;1073564.00;3.58;1863.21;124931.00;0.42;216.59;;;;;9.40;1.00;;;;;;2268834;61;1918;-87
2021/12/07 17:40:52;534338.00;1.78;920.97;0.00;0.00;0.62;;;;;9.40;1.00;;;;;;2268939;61;1427;-88
2021/12/07 17:43:21;428789.00;1.43;739.30;0.00;0.00;0.62;;;;;9.60;1.00;;;;;;2275693;61;1159;-87
2021/12/07 17:45:49;669202.00;2.23;1153.87;0.00;0.00;0.62;;;;;9.80;1.00;;;;;;2276430;61;1018;-87
2021/12/07 17:48:17;844418.00;2.81;1458.70;0.00;0.00;0.62;;;;;9.50;1.00;;;;;;2276416;61;1039;-87
2021/12/07 17:50:46;857839.00;2.86;1482.19;6567.00;0.02;12.00;;;;;9.00;1.00;;;;;;2276420;61;1460;-87
2021/12/07 17:53:14;510879.00;1.70;880.56;0.00;0.00;0.62;;;;;8.90;1.00;;;;;;2273143;61;944;-87
2021/12/07 17:55:45;589775.00;1.97;1016.57;0.00;0.00;0.62;;;;;9.10;1.00;;;;;;2280184;60;921;-87
2021/12/07 17:58:12;407979.00;1.36;703.52;0.00;0.00;0.62;;;;;9.50;1.00;;;;;;2277024;61;2002;-88
2021/12/07 18:00:44;465793.00;1.55;802.95;0.00;0.00;0.62;;;;;10.10;1.00;;;;;;2273721;60;1313;-87
2021/12/07 18:03:13;405394.00;1.35;699.08;0.00;0.00;0.62;;;;;10.30;1.00;;;;;;2280955;60;986;-87
2021/12/07 18:05:41;491124.00;1.64;846.54;0.00;0.00;0.62;;;;;10.50;1.00;;;;;;2280859;60;1011;-87
2021/12/07 18:08:08;529466.00;1.76;912.57;0.00;0.00;0.62;;;;;10.30;1.00;;;;;;2280805;60;989;-87
2021/12/07 18:10:37;437364.00;1.46;754.05;0.00;0.00;0.62;;;;;10.40;1.00;;;;;;2277094;61;1469;-87
2021/12/07 18:13:05;451353.00;1.50;778.11;0.00;0.00;0.62;;;;;10.50;1.00;;;;;;2280858;60;983;-87
2021/12/07 18:15:32;432636.00;1.44;745.92;0.00;0.00;0.62;;;;;10.20;1.00;;;;;;2276983;61;1032;-87